Time;durP1;ratioP1;P1;durP2;ratioP2;P2;SDS_P1;SDS_P2;PMS_P1;PMS_P2;Temp;Humidity;BMP_temperature;BMP_pressure;BME280_temperature;BME280_humidity;BME280_pressure;Samples;Min_cycle;Max_cycle;Signal;HPM_P1;HPM_P2
2023/01/23 00:00:50;;;;;;;;;;;;;;;16.91;77.82;101897.28;7402773;19;1949;-52
2023/01/23 00:03:18;;;;;;;;;;;;;;;16.91;77.92;101913.31;7403527;19;1953;-52
2023/01/23 00:05:57;;;;;;;;;;;;;;;16.91;78.20;101902.63;7402365;19;2012;-52
2023/01/23 00:08:25;;;;;;;;;;;;;;;16.93;77.75;101906.06;7402512;19;2036;-51
2023/01/23 00:10:54;;;;;;;;;;;;;;;17.00;77.50;101912.75;7402045;19;1884;-52
2023/01/23 00:13:22;;;;;;;;;;;;;;;16.94;77.40;101905.09;7403151;19;1717;-52
2023/01/23 00:15:51;;;;;;;;;;;;;;;17.04;77.04;101919.63;7401838;19;1952;-52
2023/01/23 00:18:19;;;;;;;;;;;;;;;16.97;77.37;101918.28;7401949;19;1983;-52
2023/01/23 00:20:50;;;;;;;;;;;;;;;16.92;77.63;101928.38;7402070;19;1747;-52
2023/01/23 00:23:18;;;;;;;;;;;;;;;16.96;77.37;101921.91;7402300;19;1986;-52
2023/01/23 00:25:47;;;;;;;;;;;;;;;17.00;76.72;101923.44;7401470;19;1756;-51
2023/01/23 00:28:15;;;;;;;;;;;;;;;16.99;76.75;101931.53;7401683;19;1714;-52
2023/01/23 00:30:43;;;;;;;;;;;;;;;16.97;76.88;101937.00;7402307;19;1793;-52
2023/01/23 00:33:12;;;;;;;;;;;;;;;16.91;77.07;101937.38;7402213;19;1978;-51
2023/01/23 00:35:40;;;;;;;;;;;;;;;16.87;77.17;101941.16;7401543;19;1851;-52
2023/01/23 00:38:11;;;;;;;;;;;;;;;16.86;77.40;101948.31;7401898;19;1839;-52
2023/01/23 00:40:39;;;;;;;;;;;;;;;16.78;77.50;101958.56;7400888;19;1856;-52
2023/01/23 00:43:07;;;;;;;;;;;;;;;16.79;77.36;101940.72;7401313;19;1952;-52
2023/01/23 00:45:36;;;;;;;;;;;;;;;16.81;77.15;101947.75;7399687;19;1995;-52
2023/01/23 00:48:05;;;;;;;;;;;;;;;16.86;77.24;101939.44;7401437;19;2049;-51
2023/01/23 00:50:33;;;;;;;;;;;;;;;16.84;77.30;101949.38;7401154;19;2006;-52
2023/01/23 00:53:01;;;;;;;;;;;;;;;16.86;76.86;101958.16;7401777;19;1802;-52
2023/01/23 00:55:32;;;;;;;;;;;;;;;16.89;76.59;101952.59;7399238;19;2017;-53
2023/01/23 00:58:01;;;;;;;;;;;;;;;16.83;76.84;101958.31;7402195;19;1714;-52
2023/01/23 01:00:29;;;;;;;;;;;;;;;16.80;76.95;101961.16;7402885;19;2870;-52
2023/01/23 01:02:57;;;;;;;;;;;;;;;16.74;77.39;101949.03;7401516;19;2210;-52
2023/01/23 01:05:26;;;;;;;;;;;;;;;16.77;76.70;101961.34;7401974;19;1895;-52
2023/01/23 01:07:54;;;;;;;;;;;;;;;16.80;76.87;101964.69;7401715;19;1921;-52
2023/01/23 01:10:22;;;;;;;;;;;;;;;16.81;76.80;101949.50;7401860;19;1948;-51
2023/01/23 01:12:53;;;;;;;;;;;;;;;16.77;76.94;101961.34;7402081;19;1862;-52
2023/01/23 01:15:21;;;;;;;;;;;;;;;16.75;77.15;101950.75;7401397;19;2173;-52
2023/01/23 01:17:52;;;;;;;;;;;;;;;16.74;76.89;101961.53;7400907;19;1914;-52
2023/01/23 01:20:22;;;;;;;;;;;;;;;16.82;76.83;101970.81;7401076;19;1940;-52
2023/01/23 01:22:50;;;;;;;;;;;;;;;16.89;76.00;101958.84;7402457;19;1889;-51
2023/01/23 01:25:19;;;;;;;;;;;;;;;16.93;75.92;101962.19;7400732;19;2176;-52
2023/01/23 01:27:47;;;;;;;;;;;;;;;16.94;76.10;101939.84;7401433;19;2424;-52
2023/01/23 01:30:18;;;;;;;;;;;;;;;16.84;76.08;101962.72;7401899;19;1743;-52
2023/01/23 01:32:49;;;;;;;;;;;;;;;16.79;76.33;101946.06;7401392;19;2256;-51
2023/01/23 01:35:17;;;;;;;;;;;;;;;16.87;75.90;101960.75;7401162;19;1930;-52
2023/01/23 01:37:45;;;;;;;;;;;;;;;16.86;76.35;101950.13;7400886;19;1930;-52
2023/01/23 01:40:16;;;;;;;;;;;;;;;16.81;76.43;101954.84;7401934;19;1925;-52
2023/01/23 01:42:45;;;;;;;;;;;;;;;16.77;76.18;101954.19;7401010;19;2063;-52
2023/01/23 01:45:28;;;;;;;;;;;;;;;16.75;76.49;101944.53;7400280;19;2111;-52
2023/01/23 01:47:59;;;;;;;;;;;;;;;16.73;76.28;101952.63;7399923;19;2029;-51
2023/01/23 01:50:27;;;;;;;;;;;;;;;16.73;76.50;101936.59;7399767;19;2083;-52
2023/01/23 01:52:56;;;;;;;;;;;;;;;16.67;76.71;101958.34;7401306;19;1741;-52
2023/01/23 01:55:24;;;;;;;;;;;;;;;16.63;76.38;101946.13;7399389;19;1882;-52
2023/01/23 01:57:53;;;;;;;;;;;;;;;16.62;76.25;101955.97;7407067;19;1869;-51
2023/01/23 02:00:21;;;;;;;;;;;;;;;16.60;76.60;101941.84;7407686;19;1855;-52
2023/01/23 02:02:52;;;;;;;;;;;;;;;16.55;77.00;101953.72;7407823;19;1902;-52
2023/01/23 02:05:25;;;;;;;;;;;;;;;16.60;76.95;101949.00;7407636;19;1925;-52
2023/01/23 02:07:56;;;;;;;;;;;;;;;16.58;76.89;101954.41;7407732;19;1766;-52
2023/01/23 02:10:24;;;;;;;;;;;;;;;16.67;76.52;101951.22;7408077;19;1867;-52
2023/01/23 02:12:53;;;;;;;;;;;;;;;16.65;76.20;101952.22;7408495;19;2056;-52
2023/01/23 02:15:23;;;;;;;;;;;;;;;16.66;76.06;101957.50;7407667;19;1990;-52
2023/01/23 02:17:52;;;;;;;;;;;;;;;16.65;76.06;101965.59;7404758;19;1846;-52
2023/01/23 02:20:24;;;;;;;;;;;;;;;16.61;76.49;101964.94;7407258;19;1915;-52
2023/01/23 02:22:56;;;;;;;;;;;;;;;16.61;76.48;101975.63;7407886;19;1828;-52
2023/01/23 02:25:29;;;;;;;;;;;;;;;16.56;76.60;101972.34;7407760;19;1884;-52
2023/01/23 02:28:00;;;;;;;;;;;;;;;16.59;76.05;101964.16;7407521;19;1759;-52
2023/01/23 02:30:28;;;;;;;;;;;;;;;16.61;76.34;101967.59;7407097;19;1651;-52
2023/01/23 02:32:56;;;;;;;;;;;;;;;16.59;76.18;101977.53;7406561;19;2018;-52
2023/01/23 02:35:27;;;;;;;;;;;;;;;16.56;76.31;101972.34;7406979;19;1742;-52
2023/01/23 02:37:57;;;;;;;;;;;;;;;16.58;76.15;101989.13;7404798;19;1983;-52
2023/01/23 02:40:31;;;;;;;;;;;;;;;16.65;76.01;101971.81;7406342;19;1930;-52
2023/01/23 02:43:02;;;;;;;;;;;;;;;16.69;75.87;101992.06;7407467;19;1920;-52
2023/01/23 02:45:31;;;;;;;;;;;;;;;16.60;75.80;101999.75;7407331;19;1892;-52
2023/01/23 02:48:00;;;;;;;;;;;;;;;16.66;75.69;101986.88;7405704;19;2002;-52
2023/01/23 02:50:28;;;;;;;;;;;;;;;16.64;75.67;101996.78;7405602;19;2078;-52
2023/01/23 02:52:57;;;;;;;;;;;;;;;16.63;75.83;102002.22;7406988;19;1737;-53
2023/01/23 02:55:28;;;;;;;;;;;;;;;16.68;75.38;102014.34;7404431;19;1938;-53
2023/01/23 03:00:14;;;;;;;;;;;;;;;16.68;75.46;102011.69;7404252;19;1856;-52
2023/01/23 03:00:45;;;;;;;;;;;;;;;16.66;75.54;102015.41;7403977;19;1938;-53
2023/01/23 03:03:14;;;;;;;;;;;;;;;16.61;75.85;102009.44;7405626;19;1731;-53
2023/01/23 03:05:43;;;;;;;;;;;;;;;16.57;75.73;102015.94;7401761;19;1884;-52
2023/01/23 03:08:11;;;;;;;;;;;;;;;16.49;76.15;102011.03;7398290;19;1943;-53
2023/01/23 03:10:39;;;;;;;;;;;;;;;16.54;75.59;102011.63;7403356;19;1769;-52
2023/01/23 03:13:10;;;;;;;;;;;;;;;16.56;76.42;102015.06;7402477;19;1823;-51
2023/01/23 03:15:40;;;;;;;;;;;;;;;16.62;76.65;102014.72;7392506;19;1728;-51
2023/01/23 03:18:11;;;;;;;;;;;;;;;16.95;76.03;102011.06;7397671;19;1865;-53
2023/01/23 03:20:40;;;;;;;;;;;;;;;18.37;71.63;102021.81;7404911;19;1722;-52
2023/01/23 03:23:08;;;;;;;;;;;;;;;19.44;67.99;102005.63;7404542;19;1958;-53
2023/01/23 03:25:36;;;;;;;;;;;;;;;20.06;65.96;102012.00;7404428;19;1655;-53
2023/01/23 03:30:11;;;;;;;;;;;;;;;19.80;66.55;102030.84;7404732;19;1929;-53
2023/01/23 03:30:51;;;;;;;;;;;;;;;19.44;68.03;102016.34;7404964;19;1807;-52
2023/01/23 03:33:21;;;;;;;;;;;;;;;19.57;67.78;102010.13;7404040;19;1751;-53
2023/01/23 03:35:50;;;;;;;;;;;;;;;19.75;67.04;102011.50;7404558;19;1972;-53
2023/01/23 03:38:18;;;;;;;;;;;;;;;19.49;67.82;102024.06;7401370;19;1851;-51
2023/01/23 03:43:27;;;;;;;;;;;;;;;19.86;66.88;102011.63;7403793;19;1668;-52
2023/01/23 03:45:55;;;;;;;;;;;;;;;19.62;67.25;102016.03;7403638;19;1955;-53
2023/01/23 03:48:26;;;;;;;;;;;;;;;19.61;67.49;102001.72;7404039;19;1769;-53
2023/01/23 03:50:55;;;;;;;;;;;;;;;19.82;67.14;102014.63;7403863;19;1703;-53
2023/01/23 03:53:23;;;;;;;;;;;;;;;19.75;67.21;102016.88;7403004;19;1792;-53
2023/01/23 03:55:52;;;;;;;;;;;;;;;19.59;67.84;102027.81;7400532;19;1660;-53
2023/01/23 03:58:20;;;;;;;;;;;;;;;19.65;67.70;102021.16;7401243;19;1870;-53
2023/01/23 04:00:48;;;;;;;;;;;;;;;19.27;68.76;102024.72;7403485;19;1642;-52
2023/01/23 04:03:17;;;;;;;;;;;;;;;18.63;70.50;102033.47;7400896;19;1643;-52
2023/01/23 04:05:48;;;;;;;;;;;;;;;18.16;72.15;102021.38;7402295;19;1667;-53
2023/01/23 04:08:16;;;;;;;;;;;;;;;18.02;72.76;102035.66;7402592;19;1894;-53
2023/01/23 04:10:44;;;;;;;;;;;;;;;18.99;69.55;102013.22;7402481;19;1981;-52
2023/01/23 04:13:12;;;;;;;;;;;;;;;19.27;68.73;102020.22;7401751;19;1967;-53
2023/01/23 04:15:41;;;;;;;;;;;;;;;19.44;68.22;102020.88;7402405;19;1777;-52
2023/01/23 04:18:09;;;;;;;;;;;;;;;18.78;70.13;102028.03;7400174;19;2020;-53
2023/01/23 04:20:37;;;;;;;;;;;;;;;18.29;71.58;102041.06;7401648;19;1991;-53
2023/01/23 04:23:08;;;;;;;;;;;;;;;18.43;71.09;102050.00;7401556;19;1786;-53
2023/01/23 04:25:36;;;;;;;;;;;;;;;19.29;68.50;102049.63;7402532;19;2016;-53
2023/01/23 04:28:05;;;;;;;;;;;;;;;19.43;67.82;102052.19;7401203;19;2192;-53
2023/01/23 04:30:33;;;;;;;;;;;;;;;19.66;67.22;102039.84;7401635;19;1800;-52
2023/01/23 04:33:01;;;;;;;;;;;;;;;19.24;68.29;102052.63;7400942;19;1760;-52
2023/01/23 04:35:29;;;;;;;;;;;;;;;18.55;70.48;102048.34;7400546;19;1769;-52
2023/01/23 04:37:58;;;;;;;;;;;;;;;18.16;71.78;102066.88;7400834;19;1866;-53
2023/01/23 04:40:29;;;;;;;;;;;;;;;18.88;69.21;102075.63;7402341;19;1720;-53
2023/01/23 04:42:57;;;;;;;;;;;;;;;19.34;67.89;102071.63;7401821;19;1731;-53
2023/01/23 04:45:25;;;;;;;;;;;;;;;19.53;67.30;102055.09;7401266;19;1985;-53
2023/01/23 04:47:54;;;;;;;;;;;;;;;19.90;66.23;102075.84;7400954;19;1998;-52
2023/01/23 04:50:22;;;;;;;;;;;;;;;19.08;69.01;102084.13;7400671;19;1801;-53
2023/01/23 04:52:50;;;;;;;;;;;;;;;18.49;70.84;102087.09;7401914;19;1939;-53
2023/01/23 04:55:18;;;;;;;;;;;;;;;18.32;71.23;102079.28;7400432;19;1974;-52
2023/01/23 04:57:49;;;;;;;;;;;;;;;19.21;68.25;102073.41;7398336;19;1848;-52
2023/01/23 05:00:20;;;;;;;;;;;;;;;19.37;67.93;102057.97;7400922;19;2032;-53
2023/01/23 05:02:48;;;;;;;;;;;;;;;19.66;66.88;102076.56;7400594;19;1784;-52
2023/01/23 05:05:19;;;;;;;;;;;;;;;19.38;67.59;102091.06;7399803;19;1688;-53
2023/01/23 05:07:48;;;;;;;;;;;;;;;18.68;69.50;102081.38;7401582;19;2033;-53
2023/01/23 05:10:16;;;;;;;;;;;;;;;18.21;71.15;102090.72;7401140;19;1774;-53
2023/01/23 05:12:45;;;;;;;;;;;;;;;18.82;69.51;102099.25;7400160;19;1735;-53
2023/01/23 05:15:16;;;;;;;;;;;;;;;19.26;67.93;102093.59;7331455;19;14610;-53
2023/01/23 05:17:44;;;;;;;;;;;;;;;19.61;67.08;102118.94;7396691;19;1874;-53
2023/01/23 05:20:13;;;;;;;;;;;;;;;19.84;66.84;102088.72;7399760;19;1956;-53
2023/01/23 05:22:51;;;;;;;;;;;;;;;20.00;66.50;102093.00;7401773;19;1889;-54
2023/01/23 05:25:19;;;;;;;;;;;;;;;20.00;66.76;102082.25;7400784;19;1592;-53
2023/01/23 05:27:48;;;;;;;;;;;;;;;20.10;66.55;102096.72;7399907;19;1773;-54
2023/01/23 05:30:19;;;;;;;;;;;;;;;20.07;66.65;102094.25;7399827;19;1804;-53
2023/01/23 05:32:47;;;;;;;;;;;;;;;20.10;66.83;102102.09;7398891;19;2065;-53
2023/01/23 05:35:16;;;;;;;;;;;;;;;20.12;66.79;102116.28;7398915;19;1811;-52
2023/01/23 05:37:44;;;;;;;;;;;;;;;19.93;67.06;102111.34;7399398;19;1894;-54
2023/01/23 05:40:14;;;;;;;;;;;;;;;19.99;66.96;102116.28;7399257;19;2600;-52
2023/01/23 05:42:43;;;;;;;;;;;;;;;20.24;66.11;102112.69;7398834;19;2024;-52
2023/01/23 05:45:11;;;;;;;;;;;;;;;20.11;66.77;102132.50;7398972;19;1800;-51
2023/01/23 05:47:43;;;;;;;;;;;;;;;20.29;65.86;102125.78;7395263;19;1716;-53
2023/01/23 05:50:15;;;;;;;;;;;;;;;19.66;66.94;102128.41;7397109;19;2336;-52
2023/01/23 05:52:43;;;;;;;;;;;;;;;18.53;67.57;102134.16;7398210;19;1572;-52
2023/01/23 05:55:12;;;;;;;;;;;;;;;18.01;67.90;102150.88;7392595;19;2353;-52
2023/01/23 05:57:40;;;;;;;;;;;;;;;18.60;67.11;102153.38;7396772;19;1867;-52
2023/01/23 06:00:10;;;;;;;;;;;;;;;19.44;64.83;102155.00;7396937;19;1900;-52
2023/01/23 06:02:39;;;;;;;;;;;;;;;19.78;63.79;102167.00;7398625;19;1878;-53
2023/01/23 06:05:10;;;;;;;;;;;;;;;19.34;65.07;102170.88;7398040;19;1950;-51
2023/01/23 06:07:39;;;;;;;;;;;;;;;18.63;67.51;102163.91;7398856;19;1752;-52
2023/01/23 06:10:08;;;;;;;;;;;;;;;18.21;68.53;102179.06;7397061;19;1862;-52
2023/01/23 06:12:36;;;;;;;;;;;;;;;18.95;66.27;102169.88;7397150;19;1927;-52
2023/01/23 06:15:05;;;;;;;;;;;;;;;19.36;65.66;102174.31;7399645;19;1766;-52
2023/01/23 06:17:33;;;;;;;;;;;;;;;19.60;64.95;102187.03;7397148;19;1863;-52
2023/01/23 06:20:02;;;;;;;;;;;;;;;19.04;66.13;102182.69;7397491;19;1582;-53
2023/01/23 06:22:33;;;;;;;;;;;;;;;18.55;68.36;102198.38;7400332;19;1530;-52
2023/01/23 06:25:01;;;;;;;;;;;;;;;18.22;69.52;102184.34;7398882;19;1734;-52
2023/01/23 06:27:29;;;;;;;;;;;;;;;18.94;67.19;102184.25;7388603;19;1751;-53
2023/01/23 06:29:58;;;;;;;;;;;;;;;19.58;65.28;102205.06;7395823;19;1820;-53
2023/01/23 06:32:26;;;;;;;;;;;;;;;19.94;64.72;102211.56;7396936;19;1732;-53
2023/01/23 06:34:54;;;;;;;;;;;;;;;19.48;65.57;102204.81;7395104;19;1632;-52
2023/01/23 06:37:22;;;;;;;;;;;;;;;18.76;67.59;102207.72;7398148;19;1846;-52
2023/01/23 06:39:53;;;;;;;;;;;;;;;18.39;68.92;102217.22;7396692;19;1744;-51
2023/01/23 06:42:21;;;;;;;;;;;;;;;18.79;67.77;102209.31;7397368;19;1889;-55
2023/01/23 06:44:50;;;;;;;;;;;;;;;19.61;65.22;102216.41;7402249;19;1957;-55
2023/01/23 06:47:19;;;;;;;;;;;;;;;20.15;63.46;102222.63;7403886;19;1708;-55
2023/01/23 06:49:47;;;;;;;;;;;;;;;19.50;65.73;102216.28;7404251;19;1662;-54
2023/01/23 06:52:15;;;;;;;;;;;;;;;18.82;67.22;102235.94;7405285;19;2066;-54
2023/01/23 06:54:43;;;;;;;;;;;;;;;18.34;68.20;102240.75;7402945;19;2126;-55
2023/01/23 06:57:14;;;;;;;;;;;;;;;18.95;67.03;102222.63;7403496;19;1994;-54
2023/01/23 06:59:43;;;;;;;;;;;;;;;19.27;66.16;102233.91;7403752;19;1919;-54
2023/01/23 07:02:12;;;;;;;;;;;;;;;19.43;65.83;102245.34;7403437;19;1934;-53
2023/01/23 07:04:40;;;;;;;;;;;;;;;18.82;67.39;102214.50;7403064;19;1874;-54
2023/01/23 07:07:08;;;;;;;;;;;;;;;18.39;69.34;102238.66;7404473;19;1924;-54
2023/01/23 07:09:37;;;;;;;;;;;;;;;18.84;68.39;102244.75;7402394;19;2141;-55
2023/01/23 07:12:06;;;;;;;;;;;;;;;19.14;66.94;102241.03;7402085;19;1795;-54
2023/01/23 07:14:37;;;;;;;;;;;;;;;19.53;65.06;102240.22;7402593;19;1922;-53
2023/01/23 07:17:05;;;;;;;;;;;;;;;19.48;64.96;102248.59;7402520;19;1597;-54
2023/01/23 07:19:34;;;;;;;;;;;;;;;18.79;66.87;102244.16;7399969;19;1865;-54
2023/01/23 07:22:02;;;;;;;;;;;;;;;18.37;69.23;102254.81;7403837;19;2111;-53
2023/01/23 07:24:31;;;;;;;;;;;;;;;18.19;70.10;102256.81;7401107;19;1860;-53
2023/01/23 07:26:59;;;;;;;;;;;;;;;19.04;67.46;102252.38;7403036;19;2004;-54
2023/01/23 07:29:27;;;;;;;;;;;;;;;19.32;66.40;102247.91;7402103;19;2091;-55
2023/01/23 07:31:59;;;;;;;;;;;;;;;19.59;65.92;102247.84;7402781;19;1955;-53
2023/01/23 07:34:28;;;;;;;;;;;;;;;18.90;67.62;102239.03;7403497;19;1739;-54
2023/01/23 07:36:56;;;;;;;;;;;;;;;18.48;69.47;102252.34;7403649;19;1181;-53
2023/01/23 07:39:24;;;;;;;;;;;;;;;18.37;69.68;102270.88;7397806;19;1854;-55
2023/01/23 07:41:53;;;;;;;;;;;;;;;18.25;69.88;102251.06;7401731;19;2046;-53
2023/01/23 07:44:22;;;;;;;;;;;;;;;18.02;70.81;102271.19;7403161;19;1885;-55
2023/01/23 07:46:50;;;;;;;;;;;;;;;18.02;70.60;102265.84;7401498;19;1743;-54
2023/01/23 07:49:21;;;;;;;;;;;;;;;17.92;70.93;102253.13;7400511;19;1671;-56
2023/01/23 07:51:49;;;;;;;;;;;;;;;17.85;70.63;102264.19;7401956;19;1041;-55
2023/01/23 07:54:18;;;;;;;;;;;;;;;17.78;71.05;102262.78;7395627;19;1874;-54
2023/01/23 07:56:46;;;;;;;;;;;;;;;18.24;69.79;102260.06;7400871;19;1934;-55
2023/01/23 07:59:14;;;;;;;;;;;;;;;18.82;67.91;102249.34;7395393;19;1901;-55
2023/01/23 08:01:42;;;;;;;;;;;;;;;18.97;67.52;102250.19;7401349;19;1973;-54
2023/01/23 08:04:11;;;;;;;;;;;;;;;18.46;69.06;102251.56;7401321;19;1880;-54
2023/01/23 08:06:42;;;;;;;;;;;;;;;18.04;70.07;102273.78;7400083;19;1757;-54
2023/01/23 08:09:10;;;;;;;;;;;;;;;17.92;70.63;102271.84;7402645;19;1962;-54
2023/01/23 08:11:38;;;;;;;;;;;;;;;17.72;70.78;102262.31;7400170;19;1716;-54
2023/01/23 08:14:07;;;;;;;;;;;;;;;17.63;71.45;102285.13;7401033;19;2057;-54
2023/01/23 08:16:35;;;;;;;;;;;;;;;18.13;69.13;102277.75;7402620;19;1974;-54
2023/01/23 08:19:03;;;;;;;;;;;;;;;18.61;67.61;102284.56;7400197;19;2328;-54
2023/01/23 08:21:32;;;;;;;;;;;;;;;18.99;66.77;102272.41;7401677;19;1544;-55
2023/01/23 08:24:03;;;;;;;;;;;;;;;18.88;66.37;102273.97;7402388;19;1964;-54
2023/01/23 08:26:32;;;;;;;;;;;;;;;18.36;67.58;102279.84;7401075;19;1753;-54
2023/01/23 08:29:00;;;;;;;;;;;;;;;17.93;69.77;102298.53;7400994;19;1926;-55
2023/01/23 08:31:28;;;;;;;;;;;;;;;17.67;70.34;102287.50;7399627;19;1894;-55
2023/01/23 08:33:57;;;;;;;;;;;;;;;17.52;70.81;102284.88;7401056;19;2011;-54
2023/01/23 08:36:25;;;;;;;;;;;;;;;17.98;69.01;102290.22;7402306;19;1238;-54
2023/01/23 08:38:54;;;;;;;;;;;;;;;18.47;67.26;102287.25;7399668;19;1861;-54
2023/01/23 08:41:25;;;;;;;;;;;;;;;18.91;66.12;102290.81;7400160;19;1926;-54
2023/01/23 08:43:53;;;;;;;;;;;;;;;18.80;66.23;102303.06;7397498;19;1789;-54
2023/01/23 08:46:22;;;;;;;;;;;;;;;18.22;67.88;102288.75;7399832;19;1883;-54
2023/01/23 08:48:50;;;;;;;;;;;;;;;17.87;69.38;102306.94;7399976;19;1962;-54
2023/01/23 08:51:18;;;;;;;;;;;;;;;17.62;69.98;102294.09;7399831;19;2155;-54
2023/01/23 08:53:47;;;;;;;;;;;;;;;17.51;70.05;102302.75;7399475;19;1765;-54
2023/01/23 08:56:16;;;;;;;;;;;;;;;18.13;68.40;102309.88;7398345;19;1986;-54
2023/01/23 08:58:47;;;;;;;;;;;;;;;18.53;66.65;102294.91;7400414;19;1935;-55
2023/01/23 09:01:16;;;;;;;;;;;;;;;18.91;65.56;102283.63;7399799;19;1813;-54
2023/01/23 09:03:45;;;;;;;;;;;;;;;19.04;65.13;102289.91;7401114;19;1111;-54
2023/01/23 09:06:14;;;;;;;;;;;;;;;18.71;65.98;102278.63;7396950;19;1761;-54
2023/01/23 09:08:42;;;;;;;;;;;;;;;18.17;67.32;102290.84;7399605;19;1627;-54
2023/01/23 09:11:12;;;;;;;;;;;;;;;17.82;68.52;102299.13;7399769;19;1834;-54
2023/01/23 09:13:40;;;;;;;;;;;;;;;17.58;69.24;102289.84;7400228;19;1683;-55
2023/01/23 09:16:12;;;;;;;;;;;;;;;17.66;68.63;102296.47;7400356;19;1890;-54
2023/01/23 09:18:40;;;;;;;;;;;;;;;18.18;67.58;102295.22;7399211;19;1851;-55
2023/01/23 09:21:10;;;;;;;;;;;;;;;18.77;65.93;102283.59;7400492;19;1998;-54
2023/01/23 09:23:38;;;;;;;;;;;;;;;19.00;65.06;102285.72;7396795;19;2324;-54
2023/01/23 09:26:07;;;;;;;;;;;;;;;18.97;64.75;102280.53;7399140;19;1650;-54
2023/01/23 09:28:37;;;;;;;;;;;;;;;18.39;66.40;102298.44;7397635;19;1858;-54
2023/01/23 09:31:06;;;;;;;;;;;;;;;17.92;67.75;102285.25;7397676;19;1494;-53
2023/01/23 09:33:37;;;;;;;;;;;;;;;17.66;68.76;102279.56;7399932;19;1881;-54
2023/01/23 09:36:06;;;;;;;;;;;;;;;17.51;69.33;102289.38;7399524;19;2293;-54
2023/01/23 09:38:37;;;;;;;;;;;;;;;18.05;67.50;102272.84;7397986;19;1845;-54
2023/01/23 09:41:10;;;;;;;;;;;;;;;18.44;65.91;102290.09;7398752;19;1922;-54
2023/01/23 09:43:42;;;;;;;;;;;;;;;18.88;64.91;102282.00;7399435;19;1838;-55
2023/01/23 09:46:16;;;;;;;;;;;;;;;18.74;65.05;102279.31;7400109;19;1750;-54
2023/01/23 09:48:50;;;;;;;;;;;;;;;18.19;66.82;102274.69;7399201;19;1942;-54
2023/01/23 09:51:23;;;;;;;;;;;;;;;17.77;67.98;102285.16;7399609;19;1876;-54
2023/01/23 09:53:51;;;;;;;;;;;;;;;17.54;69.06;102291.00;7398583;19;1740;-55
2023/01/23 09:56:28;;;;;;;;;;;;;;;17.63;68.03;102290.47;7396227;19;1940;-55
2023/01/23 09:59:00;;;;;;;;;;;;;;;18.22;66.10;102266.44;7398494;19;1866;-55
2023/01/23 10:01:30;;;;;;;;;;;;;;;18.82;64.70;102277.03;7397639;19;2061;-54
2023/01/23 10:04:02;;;;;;;;;;;;;;;18.96;64.06;102275.25;7398142;19;1992;-55
2023/01/23 10:06:31;;;;;;;;;;;;;;;18.99;63.96;102275.94;7399016;19;2091;-54
2023/01/23 10:09:22;;;;;;;;;;;;;;;18.45;65.13;102286.47;7398444;19;1711;-54
2023/01/23 10:11:56;;;;;;;;;;;;;;;17.92;67.05;102287.91;7397707;19;1719;-54
2023/01/23 10:14:35;;;;;;;;;;;;;;;17.64;67.85;102287.69;7398370;19;1879;-54
2023/01/23 10:17:08;;;;;;;;;;;;;;;17.56;67.74;102278.38;7398013;19;1939;-54
2023/01/23 10:19:48;;;;;;;;;;;;;;;18.11;66.52;102285.88;7401882;19;1858;-54
2023/01/23 10:22:26;;;;;;;;;;;;;;;18.68;64.45;102272.50;7405064;19;1578;-55
2023/01/23 10:24:56;;;;;;;;;;;;;;;19.02;63.12;102278.44;7403670;19;1847;-55
2023/01/23 10:27:25;;;;;;;;;;;;;;;19.00;63.64;102280.34;7405761;19;1874;-54
2023/01/23 10:29:58;;;;;;;;;;;;;;;18.82;63.85;102285.06;7404868;19;1600;-54
2023/01/23 10:32:27;;;;;;;;;;;;;;;18.24;65.79;102289.53;7402424;19;1802;-54
2023/01/23 10:35:00;;;;;;;;;;;;;;;17.85;67.13;102285.59;7404432;19;1582;-54
2023/01/23 10:37:42;;;;;;;;;;;;;;;17.63;67.57;102285.13;7406553;19;1298;-55
2023/01/23 10:40:13;;;;;;;;;;;;;;;17.66;67.49;102290.28;7402069;19;2167;-55
2023/01/23 10:42:42;;;;;;;;;;;;;;;18.25;65.51;102296.59;7404765;19;2062;-55
2023/01/23 10:45:17;;;;;;;;;;;;;;;18.75;64.23;102272.97;7403852;19;1911;-54
2023/01/23 10:47:46;;;;;;;;;;;;;;;18.93;63.23;102284.38;7404865;19;1733;-54
2023/01/23 10:50:17;;;;;;;;;;;;;;;18.56;64.63;102275.97;7404852;19;1968;-54
2023/01/23 10:52:47;;;;;;;;;;;;;;;18.03;66.91;102283.66;7404824;19;1212;-54
2023/01/23 10:55:29;;;;;;;;;;;;;;;17.68;68.49;102261.63;7403948;19;1895;-54
2023/01/23 10:58:01;;;;;;;;;;;;;;;17.58;68.61;102271.13;7404920;19;1880;-54
2023/01/23 11:00:37;;;;;;;;;;;;;;;17.79;68.15;102282.41;7402433;19;1986;-54
2023/01/23 11:03:35;;;;;;;;;;;;;;;18.25;66.66;102267.13;7404026;19;2032;-55
2023/01/23 11:06:07;;;;;;;;;;;;;;;18.76;65.25;102266.66;7401397;19;1723;-54
2023/01/23 11:08:37;;;;;;;;;;;;;;;18.94;65.18;102267.34;7403403;19;1898;-54
2023/01/23 11:11:29;;;;;;;;;;;;;;;18.96;64.83;102246.66;7404187;19;1888;-55
2023/01/23 11:14:08;;;;;;;;;;;;;;;18.98;64.82;102258.16;7401003;19;2293;-55
2023/01/23 11:16:37;;;;;;;;;;;;;;;18.81;65.28;102263.72;7403634;19;1726;-54
2023/01/23 11:19:07;;;;;;;;;;;;;;;18.31;66.82;102265.91;7403629;19;1867;-54
2023/01/23 11:21:39;;;;;;;;;;;;;;;17.89;68.18;102271.09;7404884;19;1624;-55
2023/01/23 11:24:11;;;;;;;;;;;;;;;17.72;69.06;102263.16;7403990;19;1790;-55
2023/01/23 11:26:40;;;;;;;;;;;;;;;17.61;69.07;102255.78;7402644;19;1798;-55
2023/01/23 11:29:29;;;;;;;;;;;;;;;17.87;68.24;102267.63;7402987;19;1923;-54
2023/01/23 11:31:59;;;;;;;;;;;;;;;18.44;66.57;102261.53;7402227;19;1960;-55
2023/01/23 11:34:30;;;;;;;;;;;;;;;18.81;65.40;102253.00;7402882;19;1881;-54
2023/01/23 11:37:06;;;;;;;;;;;;;;;18.97;64.49;102253.72;7403688;19;1108;-55
2023/01/23 11:39:40;;;;;;;;;;;;;;;18.81;65.59;102274.44;7400655;19;1997;-54
2023/01/23 11:42:10;;;;;;;;;;;;;;;18.21;67.16;102262.94;7399884;19;1908;-55
2023/01/23 11:44:40;;;;;;;;;;;;;;;17.83;68.24;102265.22;7402377;19;2001;-55
2023/01/23 11:47:21;;;;;;;;;;;;;;;17.60;69.31;102254.03;7401624;19;1895;-54
2023/01/23 11:50:08;;;;;;;;;;;;;;;17.56;69.11;102251.63;7402602;19;1940;-54
2023/01/23 11:52:45;;;;;;;;;;;;;;;19.15;63.76;102256.19;7404370;19;992;-54
2023/01/23 11:55:21;;;;;;;;;;;;;;;19.15;63.95;102261.53;7401501;19;1892;-54
2023/01/23 11:57:58;;;;;;;;;;;;;;;18.66;65.34;102265.50;7402414;19;2277;-54
2023/01/23 12:00:31;;;;;;;;;;;;;;;18.13;67.03;102262.53;7400740;19;1979;-54
2023/01/23 12:03:14;;;;;;;;;;;;;;;17.71;68.44;102258.78;7400920;19;1884;-54
2023/01/23 12:06:00;;;;;;;;;;;;;;;17.62;68.30;102273.53;7398823;19;1914;-54
2023/01/23 12:08:36;;;;;;;;;;;;;;;17.99;67.55;102273.22;7401343;19;1697;-54
2023/01/23 12:11:12;;;;;;;;;;;;;;;18.60;65.53;102272.13;7401928;19;1760;-54
2023/01/23 12:13:49;;;;;;;;;;;;;;;18.92;65.01;102274.63;7401724;19;1751;-54
2023/01/23 12:16:22;;;;;;;;;;;;;;;19.05;64.50;102278.22;7401882;19;1932;-55
2023/01/23 12:19:08;;;;;;;;;;;;;;;18.54;66.02;102285.88;7400491;19;1916;-54
2023/01/23 12:21:41;;;;;;;;;;;;;;;18.15;67.42;102298.09;7402228;19;1974;-54
2023/01/23 12:24:19;;;;;;;;;;;;;;;17.91;68.54;102289.72;7400468;19;2004;-54
2023/01/23 12:26:55;;;;;;;;;;;;;;;17.84;69.37;102299.91;7400192;19;1794;-55
2023/01/23 12:29:33;;;;;;;;;;;;;;;17.71;69.72;102285.53;7401213;19;1980;-54
2023/01/23 12:32:12;;;;;;;;;;;;;;;17.73;69.75;102270.25;7399957;19;1916;-54
2023/01/23 12:34:50;;;;;;;;;;;;;;;18.44;68.06;102292.78;7399687;19;1726;-54
2023/01/23 12:37:24;;;;;;;;;;;;;;;18.88;66.38;102282.00;7402121;19;1720;-55
2023/01/23 12:40:12;;;;;;;;;;;;;;;18.84;66.10;102285.84;7400530;19;2465;-54
2023/01/23 12:42:45;;;;;;;;;;;;;;;18.37;67.58;102303.00;7399668;19;1751;-53
2023/01/23 12:45:20;;;;;;;;;;;;;;;18.10;68.54;102302.88;7400527;19;1863;-52
2023/01/23 12:47:51;;;;;;;;;;;;;;;17.95;69.61;102306.47;7399751;19;1903;-54
2023/01/23 12:50:21;;;;;;;;;;;;;;;17.98;69.62;102316.97;7398795;19;1987;-54
2023/01/23 12:52:52;;;;;;;;;;;;;;;18.02;69.29;102299.78;7401047;19;1879;-54
2023/01/23 12:55:25;;;;;;;;;;;;;;;17.94;69.62;102307.41;7399669;19;1754;-54
2023/01/23 12:57:56;;;;;;;;;;;;;;;17.86;70.13;102306.03;7400305;19;2365;-55
2023/01/23 13:00:35;;;;;;;;;;;;;;;17.81;70.05;102302.75;7397305;19;1921;-54
2023/01/23 13:03:10;;;;;;;;;;;;;;;17.80;69.80;102303.69;7399417;19;2091;-55
2023/01/23 13:05:44;;;;;;;;;;;;;;;17.66;70.49;102322.38;7398123;19;2322;-55
2023/01/23 13:08:23;;;;;;;;;;;;;;;18.54;67.99;102301.97;7400519;19;2302;-54